sensor_id;sensor_type;location;lat;lon;timestamp;temperature;humidity
12833;DHT22;6483;51.310;4.462;2023-01-15T00:01:34;8.40;99.90
12833;DHT22;6483;51.310;4.462;2023-01-15T00:04:05;8.40;99.90
12833;DHT22;6483;51.310;4.462;2023-01-15T00:06:34;8.40;99.90
12833;DHT22;6483;51.310;4.462;2023-01-15T00:09:00;8.40;99.90
12833;DHT22;6483;51.310;4.462;2023-01-15T00:11:26;8.40;99.90
12833;DHT22;6483;51.310;4.462;2023-01-15T00:13:52;8.30;99.90
12833;DHT22;6483;51.310;4.462;2023-01-15T00:16:22;8.30;99.90
12833;DHT22;6483;51.310;4.462;2023-01-15T00:19:00;8.40;99.90
12833;DHT22;6483;51.310;4.462;2023-01-15T00:21:34;8.30;99.90
12833;DHT22;6483;51.310;4.462;2023-01-15T00:24:00;8.30;99.90
12833;DHT22;6483;51.310;4.462;2023-01-15T00:26:44;8.30;99.90
12833;DHT22;6483;51.310;4.462;2023-01-15T00:29:28;8.30;99.90
12833;DHT22;6483;51.310;4.462;2023-01-15T00:32:05;8.30;99.90
12833;DHT22;6483;51.310;4.462;2023-01-15T00:34:31;8.30;99.90
12833;DHT22;6483;51.310;4.462;2023-01-15T00:37:00;8.30;99.90
12833;DHT22;6483;51.310;4.462;2023-01-15T00:39:29;8.30;99.90
12833;DHT22;6483;51.310;4.462;2023-01-15T00:41:56;8.30;99.90
12833;DHT22;6483;51.310;4.462;2023-01-15T00:44:23;8.30;99.90
12833;DHT22;6483;51.310;4.462;2023-01-15T00:46:48;8.30;99.90
12833;DHT22;6483;51.310;4.462;2023-01-15T00:49:14;8.30;99.90
12833;DHT22;6483;51.310;4.462;2023-01-15T00:51:39;8.30;99.90
12833;DHT22;6483;51.310;4.462;2023-01-15T00:54:05;8.30;99.90
12833;DHT22;6483;51.310;4.462;2023-01-15T00:56:33;8.20;99.90
12833;DHT22;6483;51.310;4.462;2023-01-15T00:59:42;8.30;99.90
12833;DHT22;6483;51.310;4.462;2023-01-15T01:01:49;8.30;99.90
12833;DHT22;6483;51.310;4.462;2023-01-15T01:04:19;8.30;99.90
12833;DHT22;6483;51.310;4.462;2023-01-15T01:06:45;8.20;99.90
12833;DHT22;6483;51.310;4.462;2023-01-15T01:09:15;8.30;99.90
12833;DHT22;6483;51.310;4.462;2023-01-15T01:11:41;8.20;99.90
12833;DHT22;6483;51.310;4.462;2023-01-15T01:14:08;8.20;99.90
12833;DHT22;6483;51.310;4.462;2023-01-15T01:16:39;8.10;99.90
12833;DHT22;6483;51.310;4.462;2023-01-15T01:19:15;8.20;99.90
12833;DHT22;6483;51.310;4.462;2023-01-15T01:21:45;8.20;99.90
12833;DHT22;6483;51.310;4.462;2023-01-15T01:24:14;8.20;99.90
12833;DHT22;6483;51.310;4.462;2023-01-15T01:26:43;8.10;99.90
12833;DHT22;6483;51.310;4.462;2023-01-15T01:29:20;8.20;99.90
12833;DHT22;6483;51.310;4.462;2023-01-15T01:31:46;8.10;99.90
12833;DHT22;6483;51.310;4.462;2023-01-15T01:34:14;8.10;99.90
12833;DHT22;6483;51.310;4.462;2023-01-15T01:36:42;8.10;99.90
12833;DHT22;6483;51.310;4.462;2023-01-15T01:39:12;8.10;99.90
12833;DHT22;6483;51.310;4.462;2023-01-15T01:41:39;8.10;99.90
12833;DHT22;6483;51.310;4.462;2023-01-15T01:46:55;8.00;99.90
12833;DHT22;6483;51.310;4.462;2023-01-15T01:49:21;8.00;99.90
12833;DHT22;6483;51.310;4.462;2023-01-15T01:51:53;8.00;99.90
12833;DHT22;6483;51.310;4.462;2023-01-15T01:54:24;8.00;99.90
12833;DHT22;6483;51.310;4.462;2023-01-15T01:56:52;7.90;99.90
12833;DHT22;6483;51.310;4.462;2023-01-15T01:59:19;7.90;99.90
12833;DHT22;6483;51.310;4.462;2023-01-15T02:01:47;7.90;99.90
12833;DHT22;6483;51.310;4.462;2023-01-15T02:04:17;7.90;99.90
12833;DHT22;6483;51.310;4.462;2023-01-15T02:06:44;7.90;99.90
12833;DHT22;6483;51.310;4.462;2023-01-15T02:09:11;7.90;99.90
12833;DHT22;6483;51.310;4.462;2023-01-15T02:11:37;7.80;99.90
12833;DHT22;6483;51.310;4.462;2023-01-15T02:14:20;7.80;99.90
12833;DHT22;6483;51.310;4.462;2023-01-15T02:17:43;7.80;99.90
12833;DHT22;6483;51.310;4.462;2023-01-15T02:25:43;7.80;99.90
12833;DHT22;6483;51.310;4.462;2023-01-15T02:28:26;7.80;99.90
12833;DHT22;6483;51.310;4.462;2023-01-15T02:31:13;7.70;99.90
12833;DHT22;6483;51.310;4.462;2023-01-15T02:36:25;7.90;99.90
12833;DHT22;6483;51.310;4.462;2023-01-15T02:38:57;7.90;99.90
12833;DHT22;6483;51.310;4.462;2023-01-15T02:41:28;7.90;99.90
12833;DHT22;6483;51.310;4.462;2023-01-15T02:44:00;7.80;99.90
12833;DHT22;6483;51.310;4.462;2023-01-15T02:46:31;7.90;99.90
12833;DHT22;6483;51.310;4.462;2023-01-15T02:48:59;7.80;99.90
12833;DHT22;6483;51.310;4.462;2023-01-15T02:52:30;7.80;99.90
12833;DHT22;6483;51.310;4.462;2023-01-15T02:54:27;7.80;99.90
12833;DHT22;6483;51.310;4.462;2023-01-15T02:56:56;7.80;99.90
12833;DHT22;6483;51.310;4.462;2023-01-15T02:59:28;7.80;99.90
12833;DHT22;6483;51.310;4.462;2023-01-15T03:02:00;7.80;99.90
12833;DHT22;6483;51.310;4.462;2023-01-15T03:04:33;7.70;99.90
12833;DHT22;6483;51.310;4.462;2023-01-15T03:07:58;5.30;99.90
12833;DHT22;6483;51.310;4.462;2023-01-15T03:10:00;7.70;99.90
12833;DHT22;6483;51.310;4.462;2023-01-15T03:15:40;7.70;99.90
12833;DHT22;6483;51.310;4.462;2023-01-15T03:19:00;7.70;99.90
12833;DHT22;6483;51.310;4.462;2023-01-15T03:21:35;7.70;99.90
12833;DHT22;6483;51.310;4.462;2023-01-15T03:24:10;7.70;99.90
12833;DHT22;6483;51.310;4.462;2023-01-15T03:26:37;7.60;99.90
12833;DHT22;6483;51.310;4.462;2023-01-15T03:29:05;7.60;99.90
12833;DHT22;6483;51.310;4.462;2023-01-15T03:31:33;7.60;99.90
12833;DHT22;6483;51.310;4.462;2023-01-15T03:33:59;7.60;99.90
12833;DHT22;6483;51.310;4.462;2023-01-15T03:36:25;7.60;99.90
12833;DHT22;6483;51.310;4.462;2023-01-15T03:38:54;7.50;99.90
12833;DHT22;6483;51.310;4.462;2023-01-15T03:52:17;7.60;99.90
12833;DHT22;6483;51.310;4.462;2023-01-15T03:55:12;7.60;99.90
12833;DHT22;6483;51.310;4.462;2023-01-15T03:57:47;9.20;99.90
12833;DHT22;6483;51.310;4.462;2023-01-15T04:00:27;7.50;99.90
12833;DHT22;6483;51.310;4.462;2023-01-15T04:02:57;7.60;99.90
12833;DHT22;6483;51.310;4.462;2023-01-15T04:05:24;7.40;99.90
12833;DHT22;6483;51.310;4.462;2023-01-15T04:07:55;7.40;99.90
12833;DHT22;6483;51.310;4.462;2023-01-15T04:10:22;7.40;99.90
12833;DHT22;6483;51.310;4.462;2023-01-15T04:12:48;7.40;99.90
12833;DHT22;6483;51.310;4.462;2023-01-15T04:15:15;7.30;99.90
12833;DHT22;6483;51.310;4.462;2023-01-15T04:17:41;7.30;99.90
12833;DHT22;6483;51.310;4.462;2023-01-15T04:20:09;7.30;99.90
12833;DHT22;6483;51.310;4.462;2023-01-15T04:22:35;7.40;99.90
12833;DHT22;6483;51.310;4.462;2023-01-15T04:25:06;7.50;99.90
12833;DHT22;6483;51.310;4.462;2023-01-15T04:27:32;7.50;99.90
12833;DHT22;6483;51.310;4.462;2023-01-15T04:29:58;7.50;99.90
12833;DHT22;6483;51.310;4.462;2023-01-15T04:32:26;7.50;99.90
12833;DHT22;6483;51.310;4.462;2023-01-15T04:34:52;7.50;99.90
12833;DHT22;6483;51.310;4.462;2023-01-15T04:37:18;7.50;99.90
12833;DHT22;6483;51.310;4.462;2023-01-15T04:39:45;7.50;99.90
12833;DHT22;6483;51.310;4.462;2023-01-15T04:42:17;7.50;99.90
12833;DHT22;6483;51.310;4.462;2023-01-15T04:45:03;7.60;99.90
12833;DHT22;6483;51.310;4.462;2023-01-15T04:47:32;7.50;99.90
12833;DHT22;6483;51.310;4.462;2023-01-15T04:50:01;7.50;99.90
12833;DHT22;6483;51.310;4.462;2023-01-15T04:52:28;7.50;99.90
12833;DHT22;6483;51.310;4.462;2023-01-15T04:54:54;7.50;99.90
12833;DHT22;6483;51.310;4.462;2023-01-15T04:57:20;7.50;99.90
12833;DHT22;6483;51.310;4.462;2023-01-15T04:59:47;7.40;99.90
12833;DHT22;6483;51.310;4.462;2023-01-15T05:02:13;7.40;99.90
12833;DHT22;6483;51.310;4.462;2023-01-15T05:04:38;7.40;99.90
12833;DHT22;6483;51.310;4.462;2023-01-15T05:07:05;7.20;99.90
12833;DHT22;6483;51.310;4.462;2023-01-15T05:09:33;7.20;99.90
12833;DHT22;6483;51.310;4.462;2023-01-15T05:11:59;7.20;99.90
12833;DHT22;6483;51.310;4.462;2023-01-15T05:14:25;7.10;99.90
12833;DHT22;6483;51.310;4.462;2023-01-15T05:16:53;7.10;99.90
12833;DHT22;6483;51.310;4.462;2023-01-15T05:19:19;7.20;99.90
12833;DHT22;6483;51.310;4.462;2023-01-15T05:21:45;7.20;99.90
12833;DHT22;6483;51.310;4.462;2023-01-15T05:24:15;7.10;99.90
12833;DHT22;6483;51.310;4.462;2023-01-15T05:26:42;7.10;99.90
12833;DHT22;6483;51.310;4.462;2023-01-15T05:29:09;7.10;99.90
12833;DHT22;6483;51.310;4.462;2023-01-15T05:31:35;7.10;99.90
12833;DHT22;6483;51.310;4.462;2023-01-15T05:34:00;7.10;99.90
12833;DHT22;6483;51.310;4.462;2023-01-15T05:36:29;7.10;99.90
12833;DHT22;6483;51.310;4.462;2023-01-15T05:38:56;7.10;99.90
12833;DHT22;6483;51.310;4.462;2023-01-15T05:41:24;7.10;99.90
12833;DHT22;6483;51.310;4.462;2023-01-15T05:44:10;7.10;99.90
12833;DHT22;6483;51.310;4.462;2023-01-15T05:46:39;7.10;99.90
12833;DHT22;6483;51.310;4.462;2023-01-15T05:49:07;7.00;99.90
12833;DHT22;6483;51.310;4.462;2023-01-15T05:51:37;7.00;99.90
12833;DHT22;6483;51.310;4.462;2023-01-15T05:54:04;7.00;99.90
12833;DHT22;6483;51.310;4.462;2023-01-15T05:56:30;7.10;99.90
12833;DHT22;6483;51.310;4.462;2023-01-15T05:58:56;7.10;99.90
12833;DHT22;6483;51.310;4.462;2023-01-15T06:01:22;7.10;99.90
12833;DHT22;6483;51.310;4.462;2023-01-15T06:03:57;7.00;99.90
12833;DHT22;6483;51.310;4.462;2023-01-15T06:06:23;7.00;99.90
12833;DHT22;6483;51.310;4.462;2023-01-15T06:08:49;6.90;99.90
12833;DHT22;6483;51.310;4.462;2023-01-15T06:11:15;6.90;99.90
12833;DHT22;6483;51.310;4.462;2023-01-15T06:13:43;6.90;99.90
12833;DHT22;6483;51.310;4.462;2023-01-15T06:16:09;6.90;99.90
12833;DHT22;6483;51.310;4.462;2023-01-15T06:18:45;6.90;99.90
12833;DHT22;6483;51.310;4.462;2023-01-15T06:21:12;6.80;99.90
12833;DHT22;6483;51.310;4.462;2023-01-15T06:23:38;6.70;99.90
12833;DHT22;6483;51.310;4.462;2023-01-15T06:26:16;6.80;99.90
12833;DHT22;6483;51.310;4.462;2023-01-15T06:28:43;6.80;99.90
12833;DHT22;6483;51.310;4.462;2023-01-15T06:31:31;6.80;99.90
12833;DHT22;6483;51.310;4.462;2023-01-15T06:33:57;6.80;99.90
12833;DHT22;6483;51.310;4.462;2023-01-15T06:36:25;6.70;99.90
12833;DHT22;6483;51.310;4.462;2023-01-15T06:38:51;6.70;99.90
12833;DHT22;6483;51.310;4.462;2023-01-15T06:41:19;6.70;99.90
12833;DHT22;6483;51.310;4.462;2023-01-15T06:44:10;6.70;99.90
12833;DHT22;6483;51.310;4.462;2023-01-15T06:46:54;6.60;99.90
12833;DHT22;6483;51.310;4.462;2023-01-15T06:49:41;6.60;99.90
12833;DHT22;6483;51.310;4.462;2023-01-15T06:52:07;6.50;99.90
12833;DHT22;6483;51.310;4.462;2023-01-15T06:54:36;6.50;99.90
12833;DHT22;6483;51.310;4.462;2023-01-15T06:57:01;6.40;99.90
12833;DHT22;6483;51.310;4.462;2023-01-15T06:59:27;6.40;99.90
12833;DHT22;6483;51.310;4.462;2023-01-15T07:01:53;6.30;99.90
12833;DHT22;6483;51.310;4.462;2023-01-15T07:04:19;6.40;99.90
12833;DHT22;6483;51.310;4.462;2023-01-15T07:06:45;6.40;99.90
12833;DHT22;6483;51.310;4.462;2023-01-15T07:09:14;6.40;99.90
12833;DHT22;6483;51.310;4.462;2023-01-15T07:12:03;6.40;99.90
12833;DHT22;6483;51.310;4.462;2023-01-15T07:14:29;6.40;99.90
12833;DHT22;6483;51.310;4.462;2023-01-15T07:16:58;6.30;99.90
12833;DHT22;6483;51.310;4.462;2023-01-15T07:19:24;6.20;99.90
12833;DHT22;6483;51.310;4.462;2023-01-15T07:21:50;6.10;99.90
12833;DHT22;6483;51.310;4.462;2023-01-15T07:24:17;6.10;99.90
12833;DHT22;6483;51.310;4.462;2023-01-15T07:26:44;6.10;99.90
12833;DHT22;6483;51.310;4.462;2023-01-15T07:29:10;6.10;99.90
12833;DHT22;6483;51.310;4.462;2023-01-15T07:31:36;6.00;99.90
12833;DHT22;6483;51.310;4.462;2023-01-15T07:34:04;6.00;99.90
12833;DHT22;6483;51.310;4.462;2023-01-15T07:36:29;5.90;99.90
12833;DHT22;6483;51.310;4.462;2023-01-15T07:39:03;5.80;99.90
12833;DHT22;6483;51.310;4.462;2023-01-15T07:41:33;5.70;99.90
12833;DHT22;6483;51.310;4.462;2023-01-15T07:44:17;5.70;99.90
12833;DHT22;6483;51.310;4.462;2023-01-15T07:49:58;5.60;99.90
12833;DHT22;6483;51.310;4.462;2023-01-15T07:52:27;5.60;99.90
12833;DHT22;6483;51.310;4.462;2023-01-15T07:54:52;5.50;99.90
12833;DHT22;6483;51.310;4.462;2023-01-15T07:57:23;5.40;99.90
12833;DHT22;6483;51.310;4.462;2023-01-15T07:59:49;5.40;99.90
12833;DHT22;6483;51.310;4.462;2023-01-15T08:02:15;5.40;99.90
12833;DHT22;6483;51.310;4.462;2023-01-15T08:04:41;5.40;99.90
12833;DHT22;6483;51.310;4.462;2023-01-15T08:07:10;5.40;99.90
12833;DHT22;6483;51.310;4.462;2023-01-15T08:09:37;5.50;99.90
12833;DHT22;6483;51.310;4.462;2023-01-15T08:12:03;5.50;99.90
12833;DHT22;6483;51.310;4.462;2023-01-15T08:14:48;5.50;99.90
12833;DHT22;6483;51.310;4.462;2023-01-15T08:17:33;5.50;99.90
12833;DHT22;6483;51.310;4.462;2023-01-15T08:20:00;5.50;99.90
12833;DHT22;6483;51.310;4.462;2023-01-15T08:22:26;5.50;99.90
12833;DHT22;6483;51.310;4.462;2023-01-15T08:25:34;5.60;99.90
12833;DHT22;6483;51.310;4.462;2023-01-15T08:27:41;5.70;99.90
12833;DHT22;6483;51.310;4.462;2023-01-15T08:30:32;5.80;99.90
12833;DHT22;6483;51.310;4.462;2023-01-15T08:32:59;5.80;99.90
12833;DHT22;6483;51.310;4.462;2023-01-15T08:35:27;5.80;99.90
12833;DHT22;6483;51.310;4.462;2023-01-15T08:37:56;5.80;99.90
12833;DHT22;6483;51.310;4.462;2023-01-15T08:40:21;5.90;99.90
12833;DHT22;6483;51.310;4.462;2023-01-15T08:42:48;5.90;99.90
12833;DHT22;6483;51.310;4.462;2023-01-15T08:45:14;5.90;99.90
12833;DHT22;6483;51.310;4.462;2023-01-15T08:47:43;6.10;99.90
12833;DHT22;6483;51.310;4.462;2023-01-15T08:50:10;6.10;99.90
12833;DHT22;6483;51.310;4.462;2023-01-15T08:52:37;6.20;99.90
12833;DHT22;6483;51.310;4.462;2023-01-15T08:55:06;6.30;99.90
12833;DHT22;6483;51.310;4.462;2023-01-15T08:57:34;6.50;99.90
12833;DHT22;6483;51.310;4.462;2023-01-15T09:00:14;6.80;99.90
12833;DHT22;6483;51.310;4.462;2023-01-15T09:02:40;7.00;99.90
12833;DHT22;6483;51.310;4.462;2023-01-15T09:05:06;7.10;99.90
12833;DHT22;6483;51.310;4.462;2023-01-15T09:07:32;7.30;99.90
12833;DHT22;6483;51.310;4.462;2023-01-15T09:10:05;7.40;99.90
12833;DHT22;6483;51.310;4.462;2023-01-15T09:12:31;7.50;99.90
12833;DHT22;6483;51.310;4.462;2023-01-15T09:14:57;7.50;99.90
12833;DHT22;6483;51.310;4.462;2023-01-15T09:17:25;7.50;99.90
12833;DHT22;6483;51.310;4.462;2023-01-15T09:19:51;7.40;99.90
12833;DHT22;6483;51.310;4.462;2023-01-15T09:22:17;7.30;99.90
12833;DHT22;6483;51.310;4.462;2023-01-15T09:24:44;7.10;99.90
12833;DHT22;6483;51.310;4.462;2023-01-15T09:27:15;7.00;99.90
12833;DHT22;6483;51.310;4.462;2023-01-15T09:29:48;6.90;99.90
12833;DHT22;6483;51.310;4.462;2023-01-15T09:32:14;6.90;99.90
12833;DHT22;6483;51.310;4.462;2023-01-15T09:34:40;7.20;99.90
12833;DHT22;6483;51.310;4.462;2023-01-15T09:37:05;7.50;99.90
12833;DHT22;6483;51.310;4.462;2023-01-15T09:39:31;7.50;99.90
12833;DHT22;6483;51.310;4.462;2023-01-15T09:45:04;7.60;99.90
12833;DHT22;6483;51.310;4.462;2023-01-15T09:47:44;7.50;99.90
12833;DHT22;6483;51.310;4.462;2023-01-15T09:50:39;7.40;99.90
12833;DHT22;6483;51.310;4.462;2023-01-15T09:56:18;7.50;99.90
12833;DHT22;6483;51.310;4.462;2023-01-15T09:58:45;7.40;99.90
12833;DHT22;6483;51.310;4.462;2023-01-15T10:01:23;7.40;99.90
12833;DHT22;6483;51.310;4.462;2023-01-15T10:04:04;7.30;99.90
12833;DHT22;6483;51.310;4.462;2023-01-15T10:06:43;7.10;99.90
12833;DHT22;6483;51.310;4.462;2023-01-15T10:09:37;7.10;99.90
12833;DHT22;6483;51.310;4.462;2023-01-15T10:12:28;6.90;99.90
12833;DHT22;6483;51.310;4.462;2023-01-15T10:17:57;6.90;99.90
12833;DHT22;6483;51.310;4.462;2023-01-15T10:26:35;7.50;99.90
12833;DHT22;6483;51.310;4.462;2023-01-15T10:29:30;7.50;99.90
12833;DHT22;6483;51.310;4.462;2023-01-15T10:43:18;7.60;99.90
12833;DHT22;6483;51.310;4.462;2023-01-15T10:45:52;7.50;99.90
12833;DHT22;6483;51.310;4.462;2023-01-15T10:48:38;7.60;99.90
12833;DHT22;6483;51.310;4.462;2023-01-15T10:51:36;7.70;99.90
12833;DHT22;6483;51.310;4.462;2023-01-15T11:00:00;8.00;99.90
12833;DHT22;6483;51.310;4.462;2023-01-15T11:02:39;7.50;99.90
12833;DHT22;6483;51.310;4.462;2023-01-15T11:05:14;7.50;99.90
12833;DHT22;6483;51.310;4.462;2023-01-15T11:07:44;7.60;99.90
12833;DHT22;6483;51.310;4.462;2023-01-15T11:10:13;7.60;99.90
12833;DHT22;6483;51.310;4.462;2023-01-15T11:12:52;7.70;99.90
12833;DHT22;6483;51.310;4.462;2023-01-15T11:15:37;7.70;99.90
12833;DHT22;6483;51.310;4.462;2023-01-15T11:18:26;7.70;99.90
12833;DHT22;6483;51.310;4.462;2023-01-15T11:21:17;7.70;99.90
12833;DHT22;6483;51.310;4.462;2023-01-15T11:23:44;7.60;99.90
12833;DHT22;6483;51.310;4.462;2023-01-15T11:26:30;7.60;99.90
12833;DHT22;6483;51.310;4.462;2023-01-15T11:28:58;7.70;99.90
12833;DHT22;6483;51.310;4.462;2023-01-15T11:31:40;7.50;99.90
12833;DHT22;6483;51.310;4.462;2023-01-15T11:34:20;7.30;99.90
12833;DHT22;6483;51.310;4.462;2023-01-15T11:36:47;7.30;99.90
12833;DHT22;6483;51.310;4.462;2023-01-15T11:39:22;7.30;99.90
12833;DHT22;6483;51.310;4.462;2023-01-15T11:41:48;7.20;99.90
12833;DHT22;6483;51.310;4.462;2023-01-15T11:44:52;7.20;99.90
12833;DHT22;6483;51.310;4.462;2023-01-15T11:47:37;7.10;99.90
12833;DHT22;6483;51.310;4.462;2023-01-15T11:50:23;7.00;99.90
12833;DHT22;6483;51.310;4.462;2023-01-15T11:53:17;7.20;99.90
12833;DHT22;6483;51.310;4.462;2023-01-15T11:56:00;7.20;99.90
12833;DHT22;6483;51.310;4.462;2023-01-15T11:58:39;7.30;99.90
12833;DHT22;6483;51.310;4.462;2023-01-15T12:01:12;7.40;99.90
12833;DHT22;6483;51.310;4.462;2023-01-15T12:03:40;7.40;99.90
12833;DHT22;6483;51.310;4.462;2023-01-15T12:06:08;7.30;99.90
12833;DHT22;6483;51.310;4.462;2023-01-15T12:17:30;7.50;99.90
12833;DHT22;6483;51.310;4.462;2023-01-15T12:20:18;7.70;99.90
12833;DHT22;6483;51.310;4.462;2023-01-15T12:25:59;7.70;99.90
12833;DHT22;6483;51.310;4.462;2023-01-15T12:28:39;7.70;99.90
12833;DHT22;6483;51.310;4.462;2023-01-15T12:31:16;7.70;99.90
12833;DHT22;6483;51.310;4.462;2023-01-15T12:33:52;7.80;99.90
12833;DHT22;6483;51.310;4.462;2023-01-15T12:36:28;7.90;99.90
12833;DHT22;6483;51.310;4.462;2023-01-15T12:39:00;7.90;99.90
12833;DHT22;6483;51.310;4.462;2023-01-15T12:41:33;8.00;99.90
12833;DHT22;6483;51.310;4.462;2023-01-15T12:44:51;8.00;99.90
12833;DHT22;6483;51.310;4.462;2023-01-15T12:50:50;8.60;99.90
12833;DHT22;6483;51.310;4.462;2023-01-15T12:58:56;8.80;99.90
12833;DHT22;6483;51.310;4.462;2023-01-15T13:06:57;8.70;99.90
12833;DHT22;6483;51.310;4.462;2023-01-15T13:12:34;8.50;99.90
12833;DHT22;6483;51.310;4.462;2023-01-15T13:15:01;8.60;99.90
12833;DHT22;6483;51.310;4.462;2023-01-15T13:20:43;8.50;99.90
12833;DHT22;6483;51.310;4.462;2023-01-15T13:26:01;8.30;99.90
12833;DHT22;6483;51.310;4.462;2023-01-15T13:31:36;8.30;99.90
12833;DHT22;6483;51.310;4.462;2023-01-15T13:34:45;8.20;99.90
12833;DHT22;6483;51.310;4.462;2023-01-15T13:37:28;8.20;99.90
12833;DHT22;6483;51.310;4.462;2023-01-15T13:40:02;8.30;99.90
12833;DHT22;6483;51.310;4.462;2023-01-15T13:42:30;8.40;99.90
12833;DHT22;6483;51.310;4.462;2023-01-15T13:47:50;8.30;99.90
12833;DHT22;6483;51.310;4.462;2023-01-15T13:50:28;8.40;99.90
12833;DHT22;6483;51.310;4.462;2023-01-15T13:53:01;8.40;99.90
12833;DHT22;6483;51.310;4.462;2023-01-15T13:55:37;8.50;99.90
12833;DHT22;6483;51.310;4.462;2023-01-15T13:58:20;8.50;99.90
12833;DHT22;6483;51.310;4.462;2023-01-15T14:00:59;8.50;99.90
12833;DHT22;6483;51.310;4.462;2023-01-15T14:03:28;8.50;99.90
12833;DHT22;6483;51.310;4.462;2023-01-15T14:06:05;8.60;99.90
12833;DHT22;6483;51.310;4.462;2023-01-15T14:08:45;8.40;99.90
12833;DHT22;6483;51.310;4.462;2023-01-15T14:27:58;8.20;99.90
12833;DHT22;6483;51.310;4.462;2023-01-15T14:31:03;8.10;99.90
12833;DHT22;6483;51.310;4.462;2023-01-15T14:34:03;8.10;99.90
12833;DHT22;6483;51.310;4.462;2023-01-15T14:36:58;7.90;99.90
12833;DHT22;6483;51.310;4.462;2023-01-15T14:40:03;7.90;99.90
12833;DHT22;6483;51.310;4.462;2023-01-15T14:42:51;7.80;99.90
12833;DHT22;6483;51.310;4.462;2023-01-15T14:45:40;7.80;99.90
12833;DHT22;6483;51.310;4.462;2023-01-15T14:51:12;7.70;99.90
12833;DHT22;6483;51.310;4.462;2023-01-15T14:53:46;7.60;99.90
12833;DHT22;6483;51.310;4.462;2023-01-15T14:56:51;7.60;99.90
12833;DHT22;6483;51.310;4.462;2023-01-15T14:59:46;7.60;99.90
12833;DHT22;6483;51.310;4.462;2023-01-15T15:02:51;7.50;99.90
12833;DHT22;6483;51.310;4.462;2023-01-15T15:05:18;7.50;99.90
12833;DHT22;6483;51.310;4.462;2023-01-15T15:07:47;7.40;99.90
12833;DHT22;6483;51.310;4.462;2023-01-15T15:10:30;7.40;99.90
12833;DHT22;6483;51.310;4.462;2023-01-15T15:13:02;7.30;99.90
12833;DHT22;6483;51.310;4.462;2023-01-15T15:21:04;7.10;99.90
12833;DHT22;6483;51.310;4.462;2023-01-15T15:23:47;7.00;99.90
12833;DHT22;6483;51.310;4.462;2023-01-15T15:26:35;7.00;99.90
12833;DHT22;6483;51.310;4.462;2023-01-15T15:31:36;7.00;99.90
12833;DHT22;6483;51.310;4.462;2023-01-15T15:34:05;6.90;99.90
12833;DHT22;6483;51.310;4.462;2023-01-15T15:36:34;6.90;99.90
12833;DHT22;6483;51.310;4.462;2023-01-15T15:39:33;6.90;99.90
12833;DHT22;6483;51.310;4.462;2023-01-15T15:42:00;6.90;99.90
12833;DHT22;6483;51.310;4.462;2023-01-15T15:44:53;6.80;99.90
12833;DHT22;6483;51.310;4.462;2023-01-15T15:47:40;6.80;99.90
12833;DHT22;6483;51.310;4.462;2023-01-15T15:50:30;6.70;99.90
12833;DHT22;6483;51.310;4.462;2023-01-15T15:53:00;6.70;99.90
12833;DHT22;6483;51.310;4.462;2023-01-15T15:55:52;6.60;99.90
12833;DHT22;6483;51.310;4.462;2023-01-15T15:58:38;6.50;99.90
12833;DHT22;6483;51.310;4.462;2023-01-15T16:01:13;6.50;99.90
12833;DHT22;6483;51.310;4.462;2023-01-15T16:03:46;6.60;99.90
12833;DHT22;6483;51.310;4.462;2023-01-15T16:06:21;6.60;99.90
12833;DHT22;6483;51.310;4.462;2023-01-15T16:08:58;6.60;99.90
12833;DHT22;6483;51.310;4.462;2023-01-15T16:11:29;6.70;99.90
12833;DHT22;6483;51.310;4.462;2023-01-15T16:13:59;6.70;99.90
12833;DHT22;6483;51.310;4.462;2023-01-15T16:16:28;6.60;99.90
12833;DHT22;6483;51.310;4.462;2023-01-15T16:18:55;6.50;99.90
12833;DHT22;6483;51.310;4.462;2023-01-15T16:21:31;6.50;99.90
12833;DHT22;6483;51.310;4.462;2023-01-15T16:24:07;6.50;99.90
12833;DHT22;6483;51.310;4.462;2023-01-15T16:26:43;6.40;99.90
12833;DHT22;6483;51.310;4.462;2023-01-15T16:29:23;6.40;99.90
12833;DHT22;6483;51.310;4.462;2023-01-15T16:31:54;6.30;99.90
12833;DHT22;6483;51.310;4.462;2023-01-15T16:34:23;6.20;99.90
12833;DHT22;6483;51.310;4.462;2023-01-15T16:36:51;6.20;99.90
12833;DHT22;6483;51.310;4.462;2023-01-15T16:39:29;6.10;99.90
12833;DHT22;6483;51.310;4.462;2023-01-15T16:42:03;6.00;99.90
12833;DHT22;6483;51.310;4.462;2023-01-15T16:47:28;6.00;99.90
12833;DHT22;6483;51.310;4.462;2023-01-15T16:52:55;5.90;99.90
12833;DHT22;6483;51.310;4.462;2023-01-15T16:55:45;5.90;99.90
12833;DHT22;6483;51.310;4.462;2023-01-15T17:00:38;5.80;99.90
12833;DHT22;6483;51.310;4.462;2023-01-15T17:03:24;5.80;99.90
12833;DHT22;6483;51.310;4.462;2023-01-15T17:05:54;5.80;99.90
12833;DHT22;6483;51.310;4.462;2023-01-15T17:08:30;5.80;99.90
12833;DHT22;6483;51.310;4.462;2023-01-15T17:11:01;5.80;99.90
12833;DHT22;6483;51.310;4.462;2023-01-15T17:13:38;5.80;99.90
12833;DHT22;6483;51.310;4.462;2023-01-15T17:16:20;5.70;99.90
12833;DHT22;6483;51.310;4.462;2023-01-15T17:18:50;5.70;99.90
12833;DHT22;6483;51.310;4.462;2023-01-15T17:21:21;5.70;99.90
12833;DHT22;6483;51.310;4.462;2023-01-15T17:23:55;5.70;99.90
12833;DHT22;6483;51.310;4.462;2023-01-15T17:26:23;5.60;99.90
12833;DHT22;6483;51.310;4.462;2023-01-15T17:28:50;5.50;99.90
12833;DHT22;6483;51.310;4.462;2023-01-15T17:31:27;5.50;99.90
12833;DHT22;6483;51.310;4.462;2023-01-15T17:33:55;5.60;99.90
12833;DHT22;6483;51.310;4.462;2023-01-15T17:36:22;5.50;99.90
12833;DHT22;6483;51.310;4.462;2023-01-15T17:38:54;5.50;99.90
12833;DHT22;6483;51.310;4.462;2023-01-15T17:41:23;5.50;99.90
12833;DHT22;6483;51.310;4.462;2023-01-15T17:43:49;5.50;99.90
12833;DHT22;6483;51.310;4.462;2023-01-15T17:46:15;5.50;99.90
12833;DHT22;6483;51.310;4.462;2023-01-15T17:48:41;5.60;99.90
12833;DHT22;6483;51.310;4.462;2023-01-15T17:51:14;5.60;99.90
12833;DHT22;6483;51.310;4.462;2023-01-15T17:53:44;5.60;99.90
12833;DHT22;6483;51.310;4.462;2023-01-15T17:56:15;5.60;99.90
12833;DHT22;6483;51.310;4.462;2023-01-15T17:59:00;5.60;99.90
12833;DHT22;6483;51.310;4.462;2023-01-15T18:01:57;5.60;99.90
12833;DHT22;6483;51.310;4.462;2023-01-15T18:04:46;5.60;99.90
12833;DHT22;6483;51.310;4.462;2023-01-15T18:07:37;5.50;99.90
12833;DHT22;6483;51.310;4.462;2023-01-15T18:10:15;5.40;99.90
12833;DHT22;6483;51.310;4.462;2023-01-15T18:12:54;5.30;99.90
12833;DHT22;6483;51.310;4.462;2023-01-15T18:15:23;5.30;99.90
12833;DHT22;6483;51.310;4.462;2023-01-15T18:17:48;5.20;99.90
12833;DHT22;6483;51.310;4.462;2023-01-15T18:20:17;5.10;99.90
12833;DHT22;6483;51.310;4.462;2023-01-15T18:22:43;5.10;99.90
12833;DHT22;6483;51.310;4.462;2023-01-15T18:25:09;5.80;99.90
12833;DHT22;6483;51.310;4.462;2023-01-15T18:27:38;5.00;99.90
12833;DHT22;6483;51.310;4.462;2023-01-15T18:30:12;5.10;99.90
12833;DHT22;6483;51.310;4.462;2023-01-15T18:32:38;5.10;99.90
12833;DHT22;6483;51.310;4.462;2023-01-15T18:35:08;5.10;99.90
12833;DHT22;6483;51.310;4.462;2023-01-15T18:37:36;5.10;99.90
12833;DHT22;6483;51.310;4.462;2023-01-15T18:40:07;5.20;99.90
12833;DHT22;6483;51.310;4.462;2023-01-15T18:42:33;5.20;99.90
12833;DHT22;6483;51.310;4.462;2023-01-15T18:45:17;5.10;99.90
12833;DHT22;6483;51.310;4.462;2023-01-15T18:48:05;5.10;99.90
12833;DHT22;6483;51.310;4.462;2023-01-15T18:50:31;5.20;99.90
12833;DHT22;6483;51.310;4.462;2023-01-15T18:53:00;5.20;99.90
12833;DHT22;6483;51.310;4.462;2023-01-15T18:55:26;5.10;99.90
12833;DHT22;6483;51.310;4.462;2023-01-15T18:57:58;5.10;99.90
12833;DHT22;6483;51.310;4.462;2023-01-15T19:00:25;5.10;99.90